Time;durP1;ratioP1;P1;durP2;ratioP2;P2;SDS_P1;SDS_P2;PMS_P1;PMS_P2;Temp;Humidity;BMP_temperature;BMP_pressure;BME280_temperature;BME280_humidity;BME280_pressure;Samples;Min_cycle;Max_cycle;Signal;HPM_P1;HPM_P2
2022/10/25 00:01:15;;;;;;;3.57;2.17;;;15.00;97.30;;;;;;5033300;28;20429;-85
2022/10/25 00:03:40;;;;;;;7.03;1.77;;;15.00;97.30;;;;;;5033124;28;20793;-85
2022/10/25 00:06:11;;;;;;;2.23;2.03;;;15.00;97.30;;;;;;5032960;28;20411;-85
2022/10/25 00:08:37;;;;;;;0.90;0.90;;;15.00;97.30;;;;;;5032722;28;20682;-85
2022/10/25 00:11:03;;;;;;;1.73;1.63;;;15.00;97.30;;;;;;5034153;28;20447;-85
2022/10/25 00:13:30;;;;;;;4.33;1.73;;;15.00;97.30;;;;;;5034186;28;20199;-85
2022/10/25 00:15:55;;;;;;;3.30;2.10;;;15.00;97.30;;;;;;5032828;28;20921;-85
2022/10/25 00:18:21;;;;;;;1.20;1.10;;;15.10;97.30;;;;;;5032992;28;20430;-84
2022/10/25 00:20:48;;;;;;;1.67;1.57;;;15.10;97.30;;;;;;5024365;28;20602;-85
2022/10/25 00:23:14;;;;;;;1.60;1.50;;;15.10;97.30;;;;;;5012812;28;20212;-84
2022/10/25 00:25:40;;;;;;;1.43;1.30;;;15.10;97.30;;;;;;5013094;28;20420;-85
2022/10/25 00:28:06;;;;;;;2.80;2.13;;;15.00;97.30;;;;;;5014095;28;20177;-84
2022/10/25 00:30:31;;;;;;;1.43;1.20;;;15.00;97.30;;;;;;5013085;28;20525;-85
2022/10/25 00:32:57;;;;;;;1.17;1.07;;;15.00;97.30;;;;;;5076547;23;20955;-84
2022/10/25 00:35:23;;;;;;;2.10;1.57;;;15.00;97.30;;;;;;5066903;28;20174;-85
2022/10/25 00:37:49;;;;;;;1.90;1.50;;;15.00;97.30;;;;;;5076272;28;20182;-84
2022/10/25 00:40:19;;;;;;;2.67;1.87;;;15.00;97.30;;;;;;5093939;28;20412;-83
2022/10/25 00:42:44;;;;;;;7.53;1.30;;;15.00;97.30;;;;;;5075798;28;20476;-83
2022/10/25 00:45:23;;;;;;;1.23;1.13;;;14.90;97.30;;;;;;5076211;28;20894;-85
2022/10/25 00:48:01;;;;;;;3.30;2.50;;;14.90;97.30;;;;;;5074460;28;20186;-85
2022/10/25 00:50:33;;;;;;;1.87;1.73;;;14.90;97.30;;;;;;5074328;28;20424;-85
2022/10/25 00:53:06;;;;;;;5.60;1.93;;;14.80;97.30;;;;;;5075548;28;20467;-84
2022/10/25 00:55:34;;;;;;;3.33;1.97;;;14.80;97.30;;;;;;5075363;28;20437;-84
2022/10/25 00:58:09;;;;;;;1.93;1.83;;;14.80;97.30;;;;;;5075274;28;20503;-85
2022/10/25 01:00:34;;;;;;;1.23;1.13;;;14.70;97.30;;;;;;5093600;28;20388;-85
2022/10/25 01:03:00;;;;;;;1.33;1.23;;;14.70;97.30;;;;;;5075252;28;20478;-85
2022/10/25 01:05:26;;;;;;;1.40;1.30;;;14.70;97.30;;;;;;5075292;28;20176;-85
2022/10/25 01:07:52;;;;;;;1.50;1.40;;;14.70;97.30;;;;;;5075030;28;20243;-85
2022/10/25 01:10:17;;;;;;;1.50;1.50;;;14.70;97.30;;;;;;5074952;28;20936;-84
2022/10/25 01:12:45;;;;;;;1.20;1.10;;;14.60;97.30;;;;;;5093178;28;20222;-85
2022/10/25 01:15:11;;;;;;;1.27;1.17;;;14.60;97.30;;;;;;5074944;28;20177;-85
2022/10/25 01:17:55;;;;;;;1.70;1.60;;;14.60;97.30;;;;;;5074536;28;20427;-85
2022/10/25 01:20:36;;;;;;;1.60;1.50;;;14.60;97.30;;;;;;5074891;28;20409;-84
2022/10/25 01:23:20;;;;;;;3.37;1.20;;;14.60;97.30;;;;;;5074882;28;20476;-85
2022/10/25 01:26:17;;;;;;;1.40;1.30;;;14.60;97.30;;;;;;5074734;28;20415;-85
2022/10/25 01:29:30;;;;;;;1.87;1.43;;;14.60;97.30;;;;;;5092530;28;20443;-84
2022/10/25 01:32:08;;;;;;;1.10;1.00;;;14.60;97.30;;;;;;5074719;28;20413;-84
2022/10/25 01:34:46;;;;;;;1.53;1.43;;;14.60;97.30;;;;;;5074658;28;20409;-84
2022/10/25 01:37:30;;;;;;;1.93;1.87;;;14.50;97.30;;;;;;5074600;28;20451;-84
2022/10/25 01:40:08;;;;;;;8.10;1.50;;;14.50;97.30;;;;;;5074620;28;20415;-84
2022/10/25 01:43:01;;;;;;;1.87;1.77;;;14.50;97.30;;;;;;5092702;28;20428;-84
2022/10/25 01:45:32;;;;;;;1.80;1.70;;;14.40;97.30;;;;;;5074489;28;20409;-85
2022/10/25 01:48:06;;;;;;;1.40;1.30;;;14.40;97.30;;;;;;5074313;28;20466;-85
2022/10/25 01:50:37;;;;;;;1.17;1.07;;;14.40;97.30;;;;;;5074231;28;20416;-84
2022/10/25 01:53:03;;;;;;;1.10;1.00;;;14.40;97.30;;;;;;5074316;28;20428;-84
2022/10/25 01:55:38;;;;;;;5.17;2.33;;;14.40;97.30;;;;;;5074519;28;20516;-85
2022/10/25 01:58:42;;;;;;;4.90;2.10;;;14.40;97.30;;;;;;5074096;28;20170;-84
2022/10/25 02:01:27;;;;;;;1.80;1.13;;;14.40;97.30;;;;;;5044105;28;20428;-82
2022/10/25 02:04:00;;;;;;;1.67;1.63;;;14.40;97.30;;;;;;5074162;28;20428;-84
2022/10/25 02:06:57;;;;;;;1.60;1.50;;;14.30;97.30;;;;;;5074411;28;20416;-84
2022/10/25 02:10:00;;;;;;;1.20;1.10;;;14.30;97.30;;;;;;5092149;28;20440;-85
2022/10/25 02:13:06;;;;;;;1.53;1.43;;;14.30;97.30;;;;;;5074273;28;20447;-85
2022/10/25 02:15:38;;;;;;;1.30;1.20;;;14.20;97.30;;;;;;5057850;28;20418;-85
2022/10/25 02:18:11;;;;;;;1.27;1.17;;;14.20;97.30;;;;;;5072008;28;20404;-85
2022/10/25 02:20:40;;;;;;;1.67;1.63;;;14.20;97.30;;;;;;5054060;28;20409;-85
2022/10/25 02:23:06;;;;;;;1.13;1.03;;;14.20;97.30;;;;;;5054343;28;20450;-85
2022/10/25 02:25:38;;;;;;;1.40;1.30;;;14.10;97.30;;;;;;5054290;28;21003;-84
2022/10/25 02:28:07;;;;;;;1.30;1.20;;;14.10;97.30;;;;;;5054288;28;20201;-84
2022/10/25 02:30:35;;;;;;;1.83;1.73;;;14.10;97.30;;;;;;5053850;28;20413;-85
2022/10/25 02:33:01;;;;;;;2.23;2.03;;;14.10;97.30;;;;;;5054166;28;21115;-84
2022/10/25 02:35:26;;;;;;;1.30;1.20;;;14.10;97.30;;;;;;5072010;28;20457;-84
2022/10/25 02:37:52;;;;;;;1.70;1.60;;;14.00;97.30;;;;;;5054116;28;20172;-85
2022/10/25 02:40:18;;;;;;;1.20;1.10;;;14.00;97.30;;;;;;5071709;28;20171;-85
2022/10/25 02:42:43;;;;;;;1.67;1.57;;;13.90;97.30;;;;;;5071860;28;20206;-85
2022/10/25 02:45:09;;;;;;;1.83;1.67;;;13.90;97.30;;;;;;5071828;28;20397;-85
2022/10/25 02:47:35;;;;;;;1.77;1.73;;;13.90;97.30;;;;;;5053939;28;20535;-84
2022/10/25 02:50:01;;;;;;;1.47;1.40;;;13.80;97.30;;;;;;5054078;28;20453;-85
2022/10/25 02:52:26;;;;;;;1.53;1.43;;;13.80;97.30;;;;;;5071786;28;20670;-85
2022/10/25 02:54:52;;;;;;;1.20;1.10;;;13.80;97.30;;;;;;5071744;28;20163;-85
2022/10/25 02:57:17;;;;;;;1.50;1.40;;;13.70;97.30;;;;;;5054160;28;20204;-85
2022/10/25 02:59:43;;;;;;;1.53;1.43;;;13.80;97.30;;;;;;5053724;28;20203;-84
2022/10/25 03:02:08;;;;;;;1.40;1.30;;;13.70;97.30;;;;;;5071389;28;20187;-84
2022/10/25 03:04:36;;;;;;;1.80;1.30;;;13.70;97.30;;;;;;5053704;28;20174;-83
2022/10/25 03:07:09;;;;;;;1.40;1.30;;;13.60;97.30;;;;;;5053631;28;20175;-80
2022/10/25 03:09:35;;;;;;;1.70;1.67;;;13.60;97.30;;;;;;5073259;28;20471;-84
2022/10/25 03:12:00;;;;;;;2.73;2.53;;;13.60;97.30;;;;;;5057127;28;20418;-84
2022/10/25 03:14:26;;;;;;;1.97;1.87;;;13.60;97.30;;;;;;5075086;28;20180;-84
2022/10/25 03:16:51;;;;;;;2.50;1.73;;;13.60;97.30;;;;;;5043413;28;20553;-84
2022/10/25 03:19:17;;;;;;;3.53;2.53;;;13.60;97.30;;;;;;5037298;28;20243;-84
2022/10/25 03:21:42;;;;;;;3.63;2.40;;;13.60;97.30;;;;;;5037136;28;20620;-85
2022/10/25 03:24:08;;;;;;;1.30;1.20;;;13.50;97.30;;;;;;5036839;28;20210;-84
2022/10/25 03:26:33;;;;;;;1.50;1.50;;;13.50;97.30;;;;;;5037271;28;20229;-84
2022/10/25 03:28:59;;;;;;;1.83;1.73;;;13.40;97.30;;;;;;5037450;28;20200;-84
2022/10/25 03:31:24;;;;;;;0.90;0.90;;;13.40;97.30;;;;;;5036879;28;20244;-84
2022/10/25 03:33:50;;;;;;;1.40;1.30;;;13.30;97.30;;;;;;5036871;28;20227;-84
2022/10/25 03:36:16;;;;;;;2.20;1.87;;;13.10;97.30;;;;;;5036539;28;20172;-84
2022/10/25 03:38:41;;;;;;;1.53;1.43;;;13.10;97.30;;;;;;5036913;28;20180;-84
2022/10/25 03:41:07;;;;;;;1.20;1.10;;;13.10;97.30;;;;;;5036687;28;20196;-84
2022/10/25 03:43:35;;;;;;;3.70;2.90;;;13.10;97.30;;;;;;5050272;28;20207;-85
2022/10/25 03:46:01;;;;;;;1.43;1.37;;;13.10;97.30;;;;;;5057355;28;20184;-84
2022/10/25 03:48:27;;;;;;;1.40;1.30;;;13.10;97.30;;;;;;5036422;28;20426;-84
2022/10/25 03:50:53;;;;;;;1.97;1.90;;;13.10;97.30;;;;;;5036664;28;20180;-85
2022/10/25 03:53:18;;;;;;;3.00;2.80;;;13.10;97.30;;;;;;5050137;28;20194;-85
2022/10/25 03:55:47;;;;;;;2.00;1.90;;;13.10;97.30;;;;;;5045045;28;20932;-85
2022/10/25 03:58:19;;;;;;;1.67;1.57;;;13.10;97.30;;;;;;5048660;28;20171;-85
2022/10/25 04:00:47;;;;;;;16.47;2.17;;;13.00;97.30;;;;;;5050862;28;20739;-85
2022/10/25 04:03:13;;;;;;;1.60;1.50;;;13.00;97.30;;;;;;5057671;28;20434;-85
2022/10/25 04:05:38;;;;;;;1.50;1.40;;;13.00;97.30;;;;;;5056250;28;20938;-84
2022/10/25 04:08:04;;;;;;;1.47;1.43;;;13.00;97.30;;;;;;5059950;28;20183;-84
2022/10/25 04:10:29;;;;;;;2.00;1.87;;;13.00;97.30;;;;;;5055787;28;20208;-84
2022/10/25 04:12:57;;;;;;;1.43;1.40;;;13.00;97.30;;;;;;5038805;28;20570;-84
2022/10/25 04:15:28;;;;;;;2.30;1.63;;;13.00;97.30;;;;;;5047958;28;20558;-86
2022/10/25 04:17:58;;;;;;;3.03;2.13;;;13.10;97.30;;;;;;5045869;28;20446;-86
2022/10/25 04:20:24;;;;;;;2.40;2.20;;;13.10;97.30;;;;;;5041127;28;20421;-82
2022/10/25 04:22:54;;;;;;;1.50;1.40;;;13.10;97.30;;;;;;5045540;28;20437;-85
2022/10/25 04:25:20;;;;;;;1.73;1.63;;;13.10;97.30;;;;;;5042998;28;20225;-86
2022/10/25 04:27:46;;;;;;;4.13;1.80;;;13.10;97.30;;;;;;5041435;28;20418;-85
2022/10/25 04:30:11;;;;;;;3.33;2.20;;;13.10;97.30;;;;;;5055825;28;20206;-84
2022/10/25 04:32:37;;;;;;;5.33;2.80;;;13.10;97.30;;;;;;5046778;28;20232;-86
2022/10/25 04:35:12;;;;;;;2.70;1.30;;;13.10;97.30;;;;;;5035441;28;20175;-84
2022/10/25 04:37:37;;;;;;;1.83;1.83;;;13.00;97.30;;;;;;5035585;28;20182;-85
2022/10/25 04:40:04;;;;;;;1.63;1.53;;;13.00;97.30;;;;;;5035020;28;20422;-85
2022/10/25 04:42:32;;;;;;;1.50;1.40;;;13.00;97.30;;;;;;5035903;28;20215;-85
2022/10/25 04:44:58;;;;;;;2.97;2.77;;;13.10;97.30;;;;;;5046798;28;20430;-86
2022/10/25 04:47:23;;;;;;;11.33;3.33;;;13.10;97.30;;;;;;5041845;28;20472;-87
2022/10/25 04:49:49;;;;;;;2.13;1.60;;;13.10;97.30;;;;;;5044001;28;20216;-83
2022/10/25 04:52:15;;;;;;;1.90;1.83;;;13.10;97.30;;;;;;5038550;28;20638;-80
2022/10/25 04:54:40;;;;;;;1.77;1.67;;;13.20;97.30;;;;;;5048399;28;20175;-84
2022/10/25 04:57:06;;;;;;;2.93;2.40;;;13.20;97.30;;;;;;5062364;28;20187;-84
2022/10/25 04:59:31;;;;;;;1.23;1.13;;;13.20;97.30;;;;;;5051526;28;20194;-86
2022/10/25 05:02:04;;;;;;;1.90;1.50;;;13.20;97.30;;;;;;5039340;28;20187;-81
2022/10/25 05:04:29;;;;;;;4.03;1.80;;;13.20;97.30;;;;;;5068920;28;20182;-81
2022/10/25 05:06:55;;;;;;;1.40;1.30;;;13.20;97.30;;;;;;5039063;28;20417;-86
2022/10/25 05:09:20;;;;;;;7.37;1.60;;;13.20;97.30;;;;;;5044119;28;20200;-85
2022/10/25 05:11:46;;;;;;;1.40;1.30;;;13.20;97.30;;;;;;5054659;28;20718;-86
2022/10/25 05:14:12;;;;;;;1.40;1.30;;;13.10;97.30;;;;;;5047489;28;20584;-83
2022/10/25 05:16:38;;;;;;;1.57;1.47;;;13.10;97.30;;;;;;5053010;28;20183;-85
2022/10/25 05:19:04;;;;;;;4.10;1.63;;;13.00;97.30;;;;;;5051383;28;20437;-85
2022/10/25 05:21:29;;;;;;;1.40;1.30;;;13.00;97.30;;;;;;5051927;28;20183;-86
2022/10/25 05:23:56;;;;;;;5.33;1.90;;;13.00;97.30;;;;;;5047359;28;20222;-80
2022/10/25 05:26:22;;;;;;;2.27;2.07;;;12.90;97.30;;;;;;5049213;28;20179;-82
2022/10/25 05:28:50;;;;;;;1.83;1.33;;;12.90;97.30;;;;;;5040274;28;20468;-85
2022/10/25 05:31:17;;;;;;;3.57;2.20;;;12.90;97.30;;;;;;5044320;28;20238;-86
2022/10/25 05:33:44;;;;;;;1.27;1.17;;;12.90;97.30;;;;;;5049608;28;21033;-85
2022/10/25 05:36:11;;;;;;;1.23;1.13;;;12.90;97.30;;;;;;5040837;28;20476;-85
2022/10/25 05:38:36;;;;;;;2.20;2.00;;;12.90;97.30;;;;;;5045508;28;20485;-85
2022/10/25 05:41:02;;;;;;;1.60;1.50;;;13.00;97.30;;;;;;5041923;28;20420;-80
2022/10/25 05:43:28;;;;;;;3.10;1.87;;;13.00;97.30;;;;;;5047951;28;20219;-85
2022/10/25 05:46:07;;;;;;;1.60;1.50;;;13.00;97.30;;;;;;5043548;28;20185;-84
2022/10/25 05:48:35;;;;;;;1.90;1.50;;;12.90;97.30;;;;;;5062097;28;20695;-84
2022/10/25 05:51:22;;;;;;;1.20;1.10;;;12.90;97.30;;;;;;5044400;28;20986;-84
2022/10/25 05:54:04;;;;;;;1.43;1.33;;;12.90;97.30;;;;;;5042679;28;20457;-85
2022/10/25 05:56:31;;;;;;;1.63;1.53;;;13.00;97.30;;;;;;5041218;28;20429;-85
2022/10/25 05:58:57;;;;;;;1.17;1.07;;;12.90;97.30;;;;;;5044898;28;20436;-81
2022/10/25 06:01:25;;;;;;;1.20;1.10;;;13.00;97.30;;;;;;5048796;28;20936;-85
2022/10/25 06:03:52;;;;;;;1.13;1.10;;;13.00;97.30;;;;;;5061987;28;20554;-80
2022/10/25 06:06:18;;;;;;;1.73;1.63;;;13.00;97.30;;;;;;5040754;28;20510;-82
2022/10/25 06:08:45;;;;;;;0.93;0.83;;;13.00;97.30;;;;;;5043109;28;20453;-83
2022/10/25 06:11:14;;;;;;;4.83;2.13;;;13.00;97.30;;;;;;5046033;28;20417;-83
2022/10/25 06:13:42;;;;;;;2.23;2.03;;;13.00;97.30;;;;;;5044590;28;20498;-80
2022/10/25 06:16:10;;;;;;;1.27;1.20;;;13.00;97.30;;;;;;5059153;28;20444;-79
2022/10/25 06:18:37;;;;;;;1.70;1.60;;;13.00;97.30;;;;;;5070366;28;20418;-80
2022/10/25 06:21:11;;;;;;;1.73;1.63;;;12.90;97.30;;;;;;5046314;28;20418;-82
2022/10/25 06:23:38;;;;;;;0.90;0.90;;;12.90;97.30;;;;;;5047217;28;20461;-83
2022/10/25 06:26:06;;;;;;;1.20;1.10;;;12.90;97.30;;;;;;5050526;28;20970;-82
2022/10/25 06:28:32;;;;;;;1.20;1.10;;;12.90;97.30;;;;;;5046413;28;20425;-83
2022/10/25 06:31:06;;;;;;;2.03;1.97;;;12.90;97.30;;;;;;5044803;28;20421;-83
2022/10/25 06:33:32;;;;;;;14.37;1.77;;;13.00;97.30;;;;;;5060192;22;20497;-88
2022/10/25 06:36:29;;;;;;;1.67;1.47;;;13.00;97.30;;;;;;5030456;28;20431;-87
2022/10/25 06:38:55;;;;;;;2.33;1.83;;;13.00;97.30;;;;;;5026410;28;20434;-87
2022/10/25 06:42:08;;;;;;;2.13;1.50;;;13.10;97.30;;;;;;5028921;28;20430;-86
2022/10/25 06:44:43;;;;;;;3.57;1.93;;;13.10;97.30;;;;;;5038068;28;20222;-85
2022/10/25 06:47:26;;;;;;;1.47;1.37;;;13.10;97.30;;;;;;5040484;28;20459;-83
2022/10/25 06:50:09;;;;;;;1.93;1.83;;;13.10;97.30;;;;;;5048975;28;20562;-84
2022/10/25 06:52:35;;;;;;;1.57;1.47;;;13.20;97.30;;;;;;5037328;28;20497;-83
2022/10/25 06:55:34;;;;;;;1.53;1.10;;;13.30;97.30;;;;;;5036433;28;20453;-85
2022/10/25 06:58:00;;;;;;;1.73;1.63;;;13.40;97.30;;;;;;5038834;28;20418;-87
2022/10/25 07:00:25;;;;;;;1.07;0.97;;;13.50;97.30;;;;;;5035711;28;20426;-86
2022/10/25 07:02:55;;;;;;;3.90;2.70;;;13.50;97.30;;;;;;5035395;28;20171;-86
2022/10/25 07:05:21;;;;;;;1.07;0.97;;;13.60;97.30;;;;;;5047953;28;20237;-88
2022/10/25 07:07:46;;;;;;;1.37;1.27;;;13.70;97.30;;;;;;5057238;28;20815;-88
2022/10/25 07:10:12;;;;;;;1.10;1.00;;;13.70;97.30;;;;;;5048189;28;20496;-87
2022/10/25 07:12:37;;;;;;;6.50;2.40;;;13.80;97.30;;;;;;5032648;28;20208;-87
2022/10/25 07:15:03;;;;;;;1.17;1.07;;;13.90;97.30;;;;;;5052278;28;20633;-87
2022/10/25 07:17:29;;;;;;;1.67;1.57;;;13.90;97.30;;;;;;5034319;28;20164;-88
2022/10/25 07:19:56;;;;;;;6.33;1.20;;;13.90;97.30;;;;;;5031278;28;20449;-87
2022/10/25 07:22:22;;;;;;;1.00;0.90;;;14.00;97.30;;;;;;5020962;28;20184;-87
2022/10/25 07:24:48;;;;;;;9.30;1.73;;;14.00;97.30;;;;;;5043395;28;20452;-88
2022/10/25 07:27:56;;;;;;;1.63;1.53;;;14.10;97.30;;;;;;5029354;28;20423;-87
2022/10/25 07:30:21;;;;;;;2.53;1.83;;;14.10;97.30;;;;;;5025056;28;20214;-88
2022/10/25 07:32:47;;;;;;;1.03;0.93;;;14.20;97.30;;;;;;5032308;28;20509;-86
2022/10/25 07:35:15;;;;;;;1.20;1.10;;;14.40;97.30;;;;;;5032756;28;20279;-87
2022/10/25 07:37:41;;;;;;;1.30;1.30;;;14.50;97.30;;;;;;5032031;28;20212;-88
2022/10/25 07:40:07;;;;;;;8.43;2.50;;;14.60;97.30;;;;;;5024013;28;20423;-87
2022/10/25 07:42:33;;;;;;;0.90;0.80;;;14.70;97.30;;;;;;5044353;28;20630;-89
2022/10/25 07:45:20;;;;;;;;;;;;;;;;;;;;;
2022/10/25 07:47:50;;;;;;;1.50;1.40;;;15.00;97.30;;;;;;5048207;28;20178;-87
2022/10/25 07:50:15;;;;;;;1.67;1.53;;;15.10;97.30;;;;;;5035057;28;20458;-86
2022/10/25 07:52:45;;;;;;;1.00;0.90;;;15.20;97.30;;;;;;5031585;28;20414;-84
2022/10/25 07:55:14;;;;;;;5.90;2.10;;;15.30;97.30;;;;;;5035795;28;20728;-86
2022/10/25 07:57:39;;;;;;;1.50;1.40;;;15.30;97.30;;;;;;5036108;28;20415;-86
2022/10/25 08:00:49;;;;;;;3.53;2.30;;;15.30;97.30;;;;;;5028344;28;20831;-86
2022/10/25 08:03:16;;;;;;;1.63;1.53;;;15.40;97.30;;;;;;5031657;28;20292;-84
2022/10/25 08:05:51;;;;;;;6.27;1.60;;;15.40;97.30;;;;;;5035770;28;20415;-86
2022/10/25 08:08:16;;;;;;;2.00;1.90;;;15.30;97.30;;;;;;5035012;28;20437;-87
2022/10/25 08:10:43;;;;;;;2.17;1.43;;;15.30;97.30;;;;;;5064033;28;21006;-84
2022/10/25 08:13:09;;;;;;;1.17;1.10;;;15.30;97.30;;;;;;5034672;28;20435;-85
2022/10/25 08:15:35;;;;;;;1.10;1.00;;;15.30;97.30;;;;;;5035961;28;20414;-87
2022/10/25 08:18:02;;;;;;;1.30;1.20;;;15.40;97.30;;;;;;5033508;28;20173;-84
2022/10/25 08:20:30;;;;;;;1.47;1.37;;;15.50;97.30;;;;;;5030903;28;21008;-85
2022/10/25 08:22:59;;;;;;;1.10;1.00;;;15.70;97.30;;;;;;5034162;28;20426;-84
2022/10/25 08:25:27;;;;;;;2.30;1.50;;;15.90;97.30;;;;;;5025559;28;20476;-86
2022/10/25 08:27:53;;;;;;;1.10;1.00;;;16.00;97.30;;;;;;5035685;28;20427;-85
2022/10/25 08:30:29;;;;;;;1.00;0.90;;;16.20;97.30;;;;;;5029911;28;20807;-86
2022/10/25 08:32:54;;;;;;;2.93;1.33;;;16.20;97.30;;;;;;5017501;28;20177;-87
2022/10/25 08:35:20;;;;;;;1.10;1.00;;;16.10;97.30;;;;;;5026342;28;20418;-84
2022/10/25 08:37:46;;;;;;;1.10;0.87;;;16.20;97.30;;;;;;5027096;28;20188;-87
2022/10/25 08:40:19;;;;;;;8.60;1.20;;;16.20;97.30;;;;;;5025574;28;20180;-88
2022/10/25 08:42:53;;;;;;;1.33;0.97;;;16.20;97.30;;;;;;5018354;28;20422;-86
2022/10/25 08:45:59;;;;;;;1.33;1.30;;;16.20;97.30;;;;;;5026594;28;20417;-87
2022/10/25 08:48:32;;;;;;;1.03;1.00;;;16.30;97.30;;;;;;4967205;28;20415;-88
2022/10/25 08:51:06;;;;;;;2.27;1.40;;;16.40;97.30;;;;;;5020999;28;20419;-87
2022/10/25 08:53:39;;;;;;;1.60;1.53;;;16.50;97.30;;;;;;5042386;28;21125;-88
2022/10/25 08:56:11;;;;;;;1.20;1.10;;;16.60;97.30;;;;;;5028362;28;20415;-84
2022/10/25 08:58:46;;;;;;;2.63;1.60;;;16.60;97.30;;;;;;5030949;28;20430;-88
2022/10/25 09:01:17;;;;;;;1.43;1.33;;;16.50;97.30;;;;;;5037661;28;20424;-88
2022/10/25 09:03:43;;;;;;;1.33;1.27;;;16.50;97.30;;;;;;5020593;28;20438;-87
2022/10/25 09:06:11;;;;;;;0.93;0.83;;;16.60;97.30;;;;;;5048098;28;20473;-86
2022/10/25 09:09:03;;;;;;;1.00;0.90;;;16.70;97.30;;;;;;5043178;28;20458;-85
2022/10/25 09:12:01;;;;;;;1.63;1.10;;;16.80;97.30;;;;;;5047283;28;20457;-87
2022/10/25 09:14:57;;;;;;;1.00;0.90;;;17.00;97.30;;;;;;5029694;28;20456;-86
2022/10/25 09:17:47;;;;;;;1.20;1.10;;;17.00;97.30;;;;;;5027926;28;20434;-87
2022/10/25 09:20:24;;;;;;;1.00;0.90;;;16.90;97.30;;;;;;5028839;28;20862;-86
2022/10/25 09:22:59;;;;;;;1.00;0.90;;;16.80;97.30;;;;;;5056240;28;20444;-87
2022/10/25 09:25:29;;;;;;;1.57;1.20;;;16.80;97.30;;;;;;5032981;28;20477;-84
2022/10/25 09:28:02;;;;;;;8.10;1.23;;;16.80;97.30;;;;;;5025162;28;20418;-85
2022/10/25 09:30:39;;;;;;;1.13;1.03;;;16.70;97.30;;;;;;5027053;28;20999;-89
2022/10/25 09:33:10;;;;;;;1.07;0.97;;;16.60;97.30;;;;;;5037187;28;20475;-91
2022/10/25 09:35:43;;;;;;;1.20;1.13;;;16.60;97.30;;;;;;5023908;28;20418;-89
2022/10/25 09:38:18;;;;;;;1.00;0.90;;;16.50;97.30;;;;;;5047900;28;20403;-87
2022/10/25 09:40:47;;;;;;;0.97;0.87;;;16.40;97.30;;;;;;5027970;28;20410;-86
2022/10/25 09:43:18;;;;;;;1.10;1.10;;;16.30;97.30;;;;;;5029317;28;20455;-86
2022/10/25 09:45:49;;;;;;;4.93;2.20;;;16.30;97.30;;;;;;5027793;28;20456;-86
2022/10/25 09:48:31;;;;;;;1.10;1.00;;;16.30;97.30;;;;;;5021411;28;20448;-87
2022/10/25 09:51:15;;;;;;;6.30;2.70;;;16.30;97.30;;;;;;5025704;28;20420;-88
2022/10/25 09:53:44;;;;;;;1.00;0.90;;;16.30;97.30;;;;;;5047612;28;20446;-87
2022/10/25 09:56:13;;;;;;;1.00;0.90;;;16.30;97.30;;;;;;5041256;28;20512;-86
2022/10/25 09:58:41;;;;;;;1.13;1.03;;;16.20;97.30;;;;;;5041597;28;20987;-85
2022/10/25 10:01:24;;;;;;;2.43;1.10;;;16.20;97.30;;;;;;5033622;28;20419;-86
2022/10/25 10:03:53;;;;;;;1.00;0.90;;;16.30;97.30;;;;;;5034718;28;20468;-84
2022/10/25 10:06:24;;;;;;;1.43;1.40;;;16.30;97.30;;;;;;5027540;28;20415;-85
2022/10/25 10:09:21;;;;;;;0.97;0.87;;;16.30;97.30;;;;;;5043986;28;20453;-83
2022/10/25 10:11:47;;;;;;;2.93;1.40;;;16.40;97.30;;;;;;5014792;28;20450;-87
2022/10/25 10:14:33;;;;;;;1.13;1.10;;;16.30;97.30;;;;;;5032783;28;20812;-90
2022/10/25 10:17:03;;;;;;;1.20;1.10;;;16.30;97.30;;;;;;5030061;28;20422;-86
2022/10/25 10:19:29;;;;;;;3.50;1.10;;;16.30;97.30;;;;;;5034740;28;20418;-82
2022/10/25 10:22:01;;;;;;;1.00;0.90;;;16.30;97.30;;;;;;5026401;28;20505;-89
2022/10/25 10:24:33;;;;;;;3.80;1.63;;;16.20;97.30;;;;;;5023971;28;20446;-86
2022/10/25 10:27:04;;;;;;;2.17;1.30;;;16.20;97.30;;;;;;5036068;28;20414;-86
2022/10/25 10:29:33;;;;;;;2.30;1.00;;;16.20;97.30;;;;;;5032065;28;20471;-86
2022/10/25 10:32:05;;;;;;;1.47;1.33;;;16.20;97.30;;;;;;5049134;28;20940;-85
2022/10/25 10:34:42;;;;;;;1.20;1.10;;;16.20;97.30;;;;;;5055514;28;20477;-88
2022/10/25 10:37:27;;;;;;;1.00;0.90;;;16.20;97.30;;;;;;5059763;28;20430;-90
2022/10/25 10:40:23;;;;;;;1.17;1.07;;;16.20;97.30;;;;;;5062014;28;20426;-93
2022/10/25 10:42:56;;;;;;;2.43;1.33;;;16.20;97.30;;;;;;5054453;28;20422;-90
2022/10/25 10:45:22;;;;;;;1.00;0.90;;;16.20;97.30;;;;;;5054302;28;20429;-87
2022/10/25 10:48:05;;;;;;;2.03;1.00;;;16.20;97.30;;;;;;5059592;28;20410;-94
2022/10/25 10:50:31;;;;;;;1.20;1.10;;;16.30;97.30;;;;;;5061527;28;20283;-91
2022/10/25 10:53:24;;;;;;;1.43;1.33;;;16.30;97.30;;;;;;5050028;28;20418;-87
2022/10/25 10:55:55;;;;;;;1.57;1.47;;;16.40;97.30;;;;;;5032519;28;20203;-83
2022/10/25 10:58:29;;;;;;;2.30;1.63;;;16.50;97.30;;;;;;5041344;28;20457;-84
2022/10/25 11:01:05;;;;;;;15.17;2.77;;;16.60;97.30;;;;;;5028826;28;20429;-88
2022/10/25 11:03:40;;;;;;;1.00;0.90;;;16.60;97.30;;;;;;5043309;28;20520;-85
2022/10/25 11:06:25;;;;;;;1.10;1.00;;;16.60;97.30;;;;;;5033073;28;20410;-85
2022/10/25 11:09:18;;;;;;;1.10;1.00;;;16.60;97.30;;;;;;5036141;28;20998;-86
2022/10/25 11:11:44;;;;;;;3.23;2.10;;;16.80;97.30;;;;;;5053300;28;20935;-86
2022/10/25 11:14:12;;;;;;;1.10;1.00;;;16.90;97.30;;;;;;5035760;28;20488;-85
2022/10/25 11:16:44;;;;;;;1.63;1.50;;;17.00;97.30;;;;;;5034612;28;20407;-85
2022/10/25 11:19:09;;;;;;;1.37;1.10;;;17.10;97.30;;;;;;5036062;28;20449;-86
2022/10/25 11:22:01;;;;;;;1.00;0.90;;;17.20;97.30;;;;;;5036268;28;20884;-87
2022/10/25 11:24:44;;;;;;;1.00;0.90;;;17.40;97.30;;;;;;5023725;28;20266;-86
2022/10/25 11:27:18;;;;;;;2.10;1.83;;;17.60;97.30;;;;;;5053372;28;20507;-88
2022/10/25 11:30:01;;;;;;;1.00;0.90;;;17.60;97.30;;;;;;5034722;28;20446;-86
2022/10/25 11:32:42;;;;;;;4.37;1.93;;;17.60;97.30;;;;;;5035839;28;20789;-87
2022/10/25 11:35:35;;;;;;;1.67;1.13;;;17.90;97.30;;;;;;5028828;28;20551;-87
2022/10/25 11:38:22;;;;;;;2.00;1.53;;;17.90;97.00;;;;;;5035424;28;20437;-88
2022/10/25 11:41:45;;;;;;;4.13;1.70;;;17.80;97.30;;;;;;5025403;28;20467;-86
2022/10/25 11:44:45;;;;;;;1.07;1.00;;;17.80;97.30;;;;;;5031982;23;20593;-86
2022/10/25 11:47:54;;;;;;;1.07;0.97;;;17.70;96.50;;;;;;5004991;28;20431;-86
2022/10/25 11:50:55;;;;;;;0.90;0.80;;;17.70;96.90;;;;;;5009850;28;20916;-86
2022/10/25 11:56:34;;;;;;;0.90;0.80;;;17.60;97.10;;;;;;5031909;28;20894;-86
2022/10/25 12:00:05;;;;;;;0.90;0.80;;;17.60;96.00;;;;;;5038542;28;20949;-85
2022/10/25 12:02:54;;;;;;;1.13;1.03;;;17.70;96.40;;;;;;5022017;28;20431;-86
2022/10/25 12:05:53;;;;;;;1.10;1.10;;;18.00;96.40;;;;;;5013889;28;20408;-86
2022/10/25 12:08:36;;;;;;;3.37;1.20;;;18.40;95.60;;;;;;5009727;28;20455;-89
2022/10/25 12:11:07;;;;;;;1.77;1.33;;;18.60;94.20;;;;;;5013070;28;20435;-87
2022/10/25 12:13:39;;;;;;;0.70;0.70;;;18.80;93.90;;;;;;5012530;28;20478;-86
2022/10/25 12:16:10;;;;;;;1.10;1.00;;;19.00;93.40;;;;;;5022350;28;20431;-89
2022/10/25 12:18:40;;;;;;;1.00;0.90;;;19.30;92.90;;;;;;5012854;28;20428;-87
2022/10/25 12:21:08;;;;;;;0.80;0.70;;;19.20;92.30;;;;;;5013625;28;20435;-87
2022/10/25 12:23:45;;;;;;;0.93;0.83;;;19.00;93.00;;;;;;5017854;28;20465;-86
2022/10/25 12:26:29;;;;;;;4.53;1.40;;;18.70;93.20;;;;;;5030785;28;20415;-88
2022/10/25 12:28:58;;;;;;;1.77;1.37;;;18.50;94.40;;;;;;5014143;28;20469;-87
2022/10/25 12:31:37;;;;;;;1.40;1.30;;;18.40;95.00;;;;;;5014477;28;20447;-87
2022/10/25 12:34:28;;;;;;;0.90;0.80;;;18.30;95.00;;;;;;5014207;28;20446;-87
2022/10/25 12:36:59;;;;;;;2.30;1.00;;;18.10;94.50;;;;;;5014054;28;20446;-85
2022/10/25 12:39:45;;;;;;;1.10;1.00;;;18.10;95.00;;;;;;5014389;28;20427;-86
2022/10/25 12:42:35;;;;;;;1.00;0.90;;;18.10;95.20;;;;;;5052108;22;20494;-82
2022/10/25 12:45:35;;;;;;;2.40;1.00;;;18.50;94.80;;;;;;5009161;28;20461;-82
2022/10/25 12:48:28;;;;;;;2.20;1.57;;;19.00;93.50;;;;;;5030907;28;20470;-82
2022/10/25 12:51:33;;;;;;;0.90;0.80;;;19.40;92.00;;;;;;5013914;28;20470;-82
2022/10/25 12:54:04;;;;;;;3.50;1.13;;;19.40;91.30;;;;;;5003456;28;20943;-82
2022/10/25 12:57:05;;;;;;;11.10;1.63;;;19.20;91.90;;;;;;4994617;28;20459;-82
2022/10/25 13:00:08;;;;;;;4.40;2.03;;;18.90;92.10;;;;;;4960513;28;20498;-82
2022/10/25 13:03:08;;;;;;;1.10;1.00;;;18.50;93.00;;;;;;5012412;28;20440;-82
2022/10/25 13:06:01;;;;;;;0.93;0.90;;;18.30;93.70;;;;;;4992489;28;20451;-82
2022/10/25 13:08:28;;;;;;;1.73;1.67;;;18.20;94.70;;;;;;5017954;28;20499;-81
2022/10/25 13:11:03;;;;;;;0.90;0.80;;;18.10;95.10;;;;;;4980424;28;20464;-81
2022/10/25 13:13:37;;;;;;;4.60;1.30;;;18.30;95.00;;;;;;5011070;28;20502;-80
2022/10/25 13:16:05;;;;;;;4.20;0.90;;;18.40;94.90;;;;;;4994122;28;20432;-82
2022/10/25 13:18:33;;;;;;;1.80;1.30;;;18.40;94.90;;;;;;4993673;28;20704;-81
2022/10/25 13:21:00;;;;;;;0.83;0.73;;;18.50;95.40;;;;;;4998486;28;20435;-81
2022/10/25 13:23:41;;;;;;;1.13;1.03;;;18.60;95.10;;;;;;5001362;28;20460;-81